createdAt,value
2022-09-28T00:01:41.782Z,6.95
2022-09-28T00:06:43.468Z,6.30
2022-09-28T00:11:45.927Z,7.30
2022-09-28T00:16:48.608Z,7.25
2022-09-28T00:21:50.302Z,7.22
2022-09-28T00:26:56.961Z,7.07
2022-09-28T00:32:02.922Z,7.22
2022-09-28T00:37:06.371Z,7.88
2022-09-28T00:42:16.506Z,8.85
2022-09-28T00:47:31.594Z,9.38
2022-09-28T00:52:39.285Z,10.23
2022-09-28T00:57:46.901Z,10.43
2022-09-28T01:02:48.435Z,13.13
2022-09-28T01:07:50.809Z,16.88
2022-09-28T01:12:52.266Z,18.48
2022-09-28T01:18:15.005Z,20.27
2022-09-28T01:23:49.001Z,22.23
2022-09-28T01:28:59.323Z,20.58
2022-09-28T01:34:11.386Z,20.00
2022-09-28T01:39:37.354Z,20.63
2022-09-28T01:44:43.327Z,20.08
2022-09-28T01:49:53.520Z,19.58
2022-09-28T01:55:25.796Z,20.55
2022-09-28T02:00:28.169Z,20.17
2022-09-28T02:05:34.141Z,21.27
2022-09-28T02:10:48.689Z,21.08
2022-09-28T02:16:02.414Z,21.38
2022-09-28T02:21:26.976Z,21.50
2022-09-28T02:26:35.314Z,19.92
2022-09-28T02:31:36.795Z,20.90
2022-09-28T02:36:38.463Z,22.77
2022-09-28T02:41:55.877Z,23.10
2022-09-28T02:47:09.704Z,24.20
2022-09-28T02:52:35.725Z,22.52
2022-09-28T02:57:55.933Z,23.40
2022-09-28T03:03:07.494Z,23.67
2022-09-28T03:08:22.726Z,22.77
2022-09-28T03:13:26.001Z,24.27
2022-09-28T03:18:27.456Z,24.00
2022-09-28T03:23:28.984Z,24.70
2022-09-28T03:28:30.488Z,24.80
2022-09-28T03:33:32.218Z,26.23
2022-09-28T03:38:33.746Z,24.73
2022-09-28T03:43:35.524Z,23.20
2022-09-28T03:48:37.088Z,24.83
2022-09-28T03:53:39.707Z,25.10
2022-09-28T03:58:41.172Z,23.15
2022-09-28T04:03:43.137Z,24.60
2022-09-28T04:08:44.609Z,24.60
2022-09-28T04:13:49.809Z,25.85
2022-09-28T04:18:51.380Z,28.85
2022-09-28T04:23:53.228Z,26.65
2022-09-28T04:29:13.159Z,25.63
2022-09-28T04:34:17.435Z,27.55
2022-09-28T04:39:19.522Z,26.67
2022-09-28T04:44:21.207Z,26.60
2022-09-28T04:49:24.421Z,25.65
2022-09-28T04:54:25.919Z,25.63
2022-09-28T04:59:27.325Z,24.23
2022-09-28T05:04:29.005Z,23.42
2022-09-28T05:09:33.005Z,25.38
2022-09-28T05:14:36.495Z,24.27
2022-09-28T05:19:38.348Z,25.48
2022-09-28T05:24:39.852Z,23.80
2022-09-28T05:29:41.305Z,24.58
2022-09-28T05:34:43.157Z,25.80
2022-09-28T05:39:44.734Z,24.45
2022-09-28T05:44:46.281Z,26.23
2022-09-28T05:49:47.925Z,25.48
2022-09-28T05:54:49.608Z,23.63
2022-09-28T05:59:51.228Z,24.05
2022-09-28T06:04:53.736Z,22.17
2022-09-28T06:09:55.140Z,21.27
2022-09-28T06:14:58.556Z,20.80
2022-09-28T06:20:00.182Z,20.95
2022-09-28T06:25:01.740Z,20.33
2022-09-28T06:30:03.909Z,19.60
2022-09-28T06:35:06.301Z,19.75
2022-09-28T06:40:08.311Z,20.50
2022-09-28T06:45:11.351Z,21.25
2022-09-28T06:50:14.579Z,22.60
2022-09-28T06:55:16.036Z,21.85
2022-09-28T07:00:17.518Z,20.33
2022-09-28T07:05:19.938Z,20.65
2022-09-28T07:10:27.754Z,19.95
2022-09-28T07:15:30.212Z,19.77
2022-09-28T07:20:49.021Z,20.33
2022-09-28T07:25:54.852Z,20.50
2022-09-28T07:30:57.475Z,20.70
2022-09-28T07:36:00.929Z,18.08
2022-09-28T07:41:16.837Z,20.40
2022-09-28T07:46:18.368Z,21.83
2022-09-28T07:51:21.254Z,20.00
2022-09-28T07:56:23.356Z,20.17
2022-09-28T08:01:24.932Z,21.65
2022-09-28T08:06:26.351Z,19.52
2022-09-28T08:11:27.746Z,19.02
2022-09-28T08:16:30.345Z,17.90
2022-09-28T08:21:47.209Z,20.63
2022-09-28T08:26:49.364Z,23.63
2022-09-28T08:31:50.878Z,23.92
2022-09-28T08:36:53.195Z,22.98
2022-09-28T08:42:13.321Z,24.48
2022-09-28T08:47:49.673Z,24.35
2022-09-28T08:52:56.249Z,25.73
2022-09-28T08:58:13.955Z,26.05
2022-09-28T09:03:20.597Z,25.73
2022-09-28T09:08:47.866Z,24.27
2022-09-28T09:14:08.871Z,25.38
2022-09-28T09:19:26.307Z,24.00
2022-09-28T09:24:52.033Z,24.38
2022-09-28T09:30:03.168Z,25.17
2022-09-28T09:35:25.515Z,24.77
2022-09-28T09:40:57.458Z,26.92
2022-09-28T09:46:17.951Z,25.92
2022-09-28T09:51:24.809Z,26.85
2022-09-28T09:56:34.540Z,25.40
2022-09-28T10:01:38.906Z,25.08
2022-09-28T10:06:42.413Z,23.85
2022-09-28T10:11:47.592Z,22.17
2022-09-28T10:16:51.060Z,23.85
2022-09-28T10:21:53.250Z,23.10
2022-09-28T10:26:58.168Z,22.70
2022-09-28T10:31:59.666Z,22.90
2022-09-28T10:37:04.209Z,23.55
2022-09-28T10:47:18.146Z,27.50
2022-09-28T10:52:36.253Z,24.98
2022-09-28T10:57:37.679Z,25.42
2022-09-28T11:02:40.770Z,22.52
2022-09-28T11:07:47.204Z,23.10
2022-09-28T11:12:50.062Z,22.92
2022-09-28T11:17:51.849Z,21.08
2022-09-28T11:22:59.347Z,19.02
2022-09-28T11:28:04.385Z,18.40
2022-09-28T11:33:20.022Z,18.88
2022-09-28T11:38:34.082Z,19.23
2022-09-28T11:44:00.467Z,18.83
2022-09-28T11:49:11.335Z,16.77
2022-09-28T11:54:21.982Z,15.95
2022-09-28T11:59:34.332Z,14.00
2022-09-28T12:04:39.095Z,14.57
2022-09-28T12:09:43.961Z,14.02
2022-09-28T12:14:47.392Z,13.00
2022-09-28T12:19:55.407Z,14.32
2022-09-28T12:24:58.424Z,14.50
2022-09-28T12:30:32.033Z,12.48
2022-09-28T12:35:36.192Z,12.02
2022-09-28T12:40:54.579Z,11.52
2022-09-28T12:46:12.024Z,11.48
2022-09-28T12:51:52.854Z,9.50
2022-09-28T12:57:05.601Z,10.35
2022-09-28T13:02:26.611Z,8.43
2022-09-28T13:07:56.105Z,6.78
2022-09-28T13:13:16.338Z,5.85
2022-09-28T13:18:38.932Z,6.40
2022-09-28T13:23:46.380Z,6.85
2022-09-28T13:28:51.325Z,5.63
2022-09-28T13:33:53.597Z,5.95
2022-09-28T13:38:57.120Z,5.40
2022-09-28T13:44:11.034Z,4.17
2022-09-28T13:49:18.670Z,4.07
2022-09-28T13:54:26.267Z,4.00
2022-09-28T13:59:29.812Z,3.13
2022-09-28T14:05:26.399Z,3.35
2022-09-28T14:10:51.846Z,3.88
2022-09-28T14:15:53.483Z,3.70
2022-09-28T14:21:24.978Z,3.85
2022-09-28T14:26:51.132Z,2.85
2022-09-28T14:31:52.772Z,2.25
2022-09-28T14:37:13.161Z,2.40
2022-09-28T14:42:18.887Z,1.60
2022-09-28T14:47:43.097Z,1.92
2022-09-28T14:52:53.473Z,1.85
2022-09-28T14:57:58.375Z,1.25
2022-09-28T15:03:05.966Z,1.73
2022-09-28T15:08:11.861Z,1.48
2022-09-28T15:13:25.653Z,0.90
2022-09-28T15:18:45.794Z,0.57
2022-09-28T15:23:48.129Z,1.00
2022-09-28T15:28:49.815Z,1.17
2022-09-28T15:34:10.635Z,1.08
2022-09-28T15:39:25.214Z,1.45
2022-09-28T15:44:32.975Z,2.25
2022-09-28T15:49:53.177Z,2.67
2022-09-28T15:54:55.707Z,2.88
2022-09-28T15:59:59.125Z,3.50
2022-09-28T16:05:02.313Z,3.17
2022-09-28T16:10:12.876Z,1.95
2022-09-28T16:15:21.807Z,3.40
2022-09-28T16:20:32.002Z,3.72
2022-09-28T16:25:37.406Z,4.00
2022-09-28T16:31:00.527Z,2.53
2022-09-28T16:36:03.307Z,1.40
2022-09-28T16:41:05.932Z,2.00
2022-09-28T16:46:13.348Z,20.15
2022-09-28T16:51:19.543Z,4.38
2022-09-28T16:56:21.674Z,2.50
2022-09-28T17:01:24.242Z,1.75
2022-09-28T17:06:26.965Z,2.42
2022-09-28T17:11:28.629Z,2.67
2022-09-28T17:16:57.652Z,2.97
2022-09-28T17:21:54.030Z,3.72
2022-09-28T17:26:55.770Z,4.43
2022-09-28T17:31:57.234Z,5.70
2022-09-28T17:36:58.744Z,6.22
2022-09-28T17:42:00.363Z,7.38
2022-09-28T17:47:01.965Z,7.07
2022-09-28T17:52:05.408Z,7.30
2022-09-28T17:57:08.796Z,6.07
2022-09-28T18:02:11.204Z,6.50
2022-09-28T18:07:12.666Z,5.82
2022-09-28T18:12:14.261Z,6.57
2022-09-28T18:17:16.039Z,6.75
2022-09-28T18:22:17.583Z,7.93
2022-09-28T18:27:19.077Z,12.95
2022-09-28T18:32:20.529Z,11.80
2022-09-28T18:37:21.956Z,11.20
2022-09-28T18:42:23.519Z,13.02
2022-09-28T18:47:25.502Z,14.43
2022-09-28T18:52:27.565Z,21.55
2022-09-28T18:57:29.011Z,19.27
2022-09-28T19:02:32.003Z,15.13
2022-09-28T19:07:34.217Z,12.85
2022-09-28T19:12:35.890Z,12.48
2022-09-28T19:17:37.595Z,12.32
2022-09-28T19:22:39.126Z,13.30
2022-09-28T19:27:40.647Z,12.57
2022-09-28T19:32:42.808Z,12.57
2022-09-28T19:37:46.571Z,14.60
2022-09-28T19:42:47.965Z,14.97
2022-09-28T19:47:49.451Z,14.73
2022-09-28T19:52:52.381Z,14.05
2022-09-28T19:57:55.366Z,13.73
2022-09-28T20:02:58.264Z,14.40
2022-09-28T20:07:59.758Z,15.45
2022-09-28T20:13:01.242Z,13.82
2022-09-28T20:18:02.671Z,13.48
2022-09-28T20:23:04.620Z,12.18
2022-09-28T20:28:06.043Z,12.20
2022-09-28T20:33:07.823Z,12.10
2022-09-28T20:38:09.288Z,12.52
2022-09-28T20:43:10.811Z,13.10
2022-09-28T20:48:12.230Z,13.98
2022-09-28T20:53:13.620Z,14.98
2022-09-28T20:58:15.057Z,14.13
2022-09-28T21:03:16.550Z,13.40
2022-09-28T21:08:17.981Z,12.00
2022-09-28T21:13:21.148Z,12.07
2022-09-28T21:18:22.684Z,11.50
2022-09-28T21:23:25.020Z,10.25
2022-09-28T21:28:26.685Z,11.73
2022-09-28T21:33:28.139Z,10.70
2022-09-28T21:38:30.048Z,9.98
2022-09-28T21:43:31.829Z,9.38
2022-09-28T21:48:33.457Z,9.55
2022-09-28T21:53:37.223Z,9.15
2022-09-28T21:58:38.677Z,8.83
2022-09-28T22:03:41.587Z,8.18
2022-09-28T22:08:43.285Z,9.32
2022-09-28T22:13:49.859Z,8.70
2022-09-28T22:18:51.480Z,8.57
2022-09-28T22:23:53.456Z,8.75
2022-09-28T22:29:00.734Z,8.75
2022-09-28T22:34:03.019Z,9.25
2022-09-28T22:39:04.702Z,8.27
2022-09-28T22:44:06.216Z,9.07
2022-09-28T22:49:10.020Z,8.57
2022-09-28T22:54:16.372Z,8.57
2022-09-28T22:59:17.869Z,8.75
2022-09-28T23:04:19.357Z,7.20
2022-09-28T23:09:20.764Z,7.82
2022-09-28T23:14:22.685Z,7.55
2022-09-28T23:19:24.133Z,8.32
2022-09-28T23:24:25.715Z,8.13
2022-09-28T23:29:27.153Z,8.68
2022-09-28T23:34:28.568Z,8.25
2022-09-28T23:39:30.096Z,9.10
2022-09-28T23:44:32.639Z,9.02
2022-09-28T23:49:34.044Z,7.60
2022-09-28T23:54:35.512Z,8.77
2022-09-28T23:59:36.923Z,8.63
